sensor_id;sensor_type;location;lat;lon;timestamp;pressure;altitude;pressure_sealevel;temperature;humidity
71424;BME280;59240;51.370;-0.486;2023-12-14T00:01:32;101547.09;;;7.18;100.00
71424;BME280;59240;51.370;-0.486;2023-12-14T00:06:29;101562.66;;;7.15;100.00
71424;BME280;59240;51.370;-0.486;2023-12-14T00:11:27;101576.44;;;7.12;100.00
71424;BME280;59240;51.370;-0.486;2023-12-14T00:16:23;101582.47;;;7.09;100.00
71424;BME280;59240;51.370;-0.486;2023-12-14T00:21:20;101578.94;;;6.97;100.00
71424;BME280;59240;51.370;-0.486;2023-12-14T00:26:17;101608.38;;;7.12;100.00
71424;BME280;59240;51.370;-0.486;2023-12-14T00:31:14;101616.16;;;7.12;100.00
71424;BME280;59240;51.370;-0.486;2023-12-14T00:36:18;101630.84;;;7.13;100.00
71424;BME280;59240;51.370;-0.486;2023-12-14T00:41:14;101639.50;;;7.17;100.00
71424;BME280;59240;51.370;-0.486;2023-12-14T00:46:11;101639.47;;;7.12;100.00
71424;BME280;59240;51.370;-0.486;2023-12-14T00:51:08;101646.44;;;7.17;100.00
71424;BME280;59240;51.370;-0.486;2023-12-14T00:56:08;101656.78;;;7.20;100.00
71424;BME280;59240;51.370;-0.486;2023-12-14T01:01:05;101660.25;;;7.19;100.00
71424;BME280;59240;51.370;-0.486;2023-12-14T01:06:02;101674.06;;;7.19;100.00
71424;BME280;59240;51.370;-0.486;2023-12-14T01:10:59;101673.19;;;7.14;100.00
71424;BME280;59240;51.370;-0.486;2023-12-14T01:15:56;101673.19;;;7.16;100.00
71424;BME280;59240;51.370;-0.486;2023-12-14T01:20:53;101654.06;;;6.95;100.00
71424;BME280;59240;51.370;-0.486;2023-12-14T01:25:49;101686.13;;;7.09;100.00
71424;BME280;59240;51.370;-0.486;2023-12-14T01:30:46;101654.94;;;6.94;100.00
71424;BME280;59240;51.370;-0.486;2023-12-14T01:35:44;101682.66;;;7.07;100.00
71424;BME280;59240;51.370;-0.486;2023-12-14T01:40:40;101675.69;;;7.02;100.00
71424;BME280;59240;51.370;-0.486;2023-12-14T01:45:37;101684.34;;;7.05;100.00
71424;BME280;59240;51.370;-0.486;2023-12-14T01:50:34;101679.13;;;6.99;100.00
71424;BME280;59240;51.370;-0.486;2023-12-14T01:55:31;101684.28;;;6.96;100.00
71424;BME280;59240;51.370;-0.486;2023-12-14T02:05:43;101698.09;;;6.95;100.00
71424;BME280;59240;51.370;-0.486;2023-12-14T02:10:40;101710.19;;;6.96;100.00
71424;BME280;59240;51.370;-0.486;2023-12-14T02:15:37;101718.78;;;6.89;100.00
71424;BME280;59240;51.370;-0.486;2023-12-14T02:20:34;101722.22;;;6.88;100.00
71424;BME280;59240;51.370;-0.486;2023-12-14T02:25:31;101734.25;;;6.83;100.00
71424;BME280;59240;51.370;-0.486;2023-12-14T02:30:28;101742.84;;;6.77;100.00
71424;BME280;59240;51.370;-0.486;2023-12-14T02:35:25;101766.94;;;6.69;100.00
71424;BME280;59240;51.370;-0.486;2023-12-14T02:40:22;101766.81;;;6.56;100.00
71424;BME280;59240;51.370;-0.486;2023-12-14T02:45:19;101780.50;;;6.46;100.00
71424;BME280;59240;51.370;-0.486;2023-12-14T02:50:16;101783.75;;;6.30;100.00
71424;BME280;59240;51.370;-0.486;2023-12-14T02:55:13;101745.47;;;5.98;100.00
71424;BME280;59240;51.370;-0.486;2023-12-14T03:00:13;101779.97;;;6.03;100.00
71424;BME280;59240;51.370;-0.486;2023-12-14T03:05:10;101768.56;;;5.89;100.00
71424;BME280;59240;51.370;-0.486;2023-12-14T03:10:08;101757.22;;;5.78;100.00
71424;BME280;59240;51.370;-0.486;2023-12-14T03:15:05;101750.19;;;5.68;100.00
71424;BME280;59240;51.370;-0.486;2023-12-14T03:20:02;101753.44;;;5.53;100.00
71424;BME280;59240;51.370;-0.486;2023-12-14T03:25:00;101764.50;;;5.44;100.00
71424;BME280;59240;51.370;-0.486;2023-12-14T03:29:57;101764.31;;;5.31;100.00
71424;BME280;59240;51.370;-0.486;2023-12-14T03:34:54;101738.94;;;5.07;100.00
71424;BME280;59240;51.370;-0.486;2023-12-14T03:39:50;101761.44;;;5.14;100.00
71424;BME280;59240;51.370;-0.486;2023-12-14T03:44:48;101763.06;;;5.07;100.00
71424;BME280;59240;51.370;-0.486;2023-12-14T03:49:45;101770.66;;;4.98;100.00
71424;BME280;59240;51.370;-0.486;2023-12-14T03:54:42;101776.56;;;4.92;100.00
71424;BME280;59240;51.370;-0.486;2023-12-14T03:59:39;101745.19;;;4.68;100.00
71424;BME280;59240;51.370;-0.486;2023-12-14T04:04:37;101788.34;;;4.75;100.00
71424;BME280;59240;51.370;-0.486;2023-12-14T04:09:34;101809.66;;;4.66;100.00
71424;BME280;59240;51.370;-0.486;2023-12-14T04:14:30;101758.25;;;4.30;100.00
71424;BME280;59240;51.370;-0.486;2023-12-14T04:19:27;101812.06;;;4.56;100.00
71424;BME280;59240;51.370;-0.486;2023-12-14T04:24:24;101818.13;;;4.59;100.00
71424;BME280;59240;51.370;-0.486;2023-12-14T04:29:21;101819.94;;;4.62;100.00
71424;BME280;59240;51.370;-0.486;2023-12-14T04:34:18;101819.06;;;4.61;100.00
71424;BME280;59240;51.370;-0.486;2023-12-14T04:39:15;101839.78;;;4.66;100.00
71424;BME280;59240;51.370;-0.486;2023-12-14T04:44:13;101841.53;;;4.67;100.00
71424;BME280;59240;51.370;-0.486;2023-12-14T04:49:10;101853.66;;;4.71;100.00
71424;BME280;59240;51.370;-0.486;2023-12-14T04:54:08;101846.78;;;4.73;100.00
71424;BME280;59240;51.370;-0.486;2023-12-14T04:59:05;101849.44;;;4.76;100.00
71424;BME280;59240;51.370;-0.486;2023-12-14T05:04:02;101860.66;;;4.78;100.00
71424;BME280;59240;51.370;-0.486;2023-12-14T05:08:59;101879.69;;;4.83;100.00
71424;BME280;59240;51.370;-0.486;2023-12-14T05:13:59;101855.38;;;4.72;100.00
71424;BME280;59240;51.370;-0.486;2023-12-14T05:18:56;101889.31;;;4.92;100.00
71424;BME280;59240;51.370;-0.486;2023-12-14T05:23:53;101878.09;;;4.88;100.00
71424;BME280;59240;51.370;-0.486;2023-12-14T05:28:50;101867.53;;;4.76;100.00
71424;BME280;59240;51.370;-0.486;2023-12-14T05:33:47;101895.31;;;4.89;100.00
71424;BME280;59240;51.370;-0.486;2023-12-14T05:38:44;101909.97;;;4.90;100.00
71424;BME280;59240;51.370;-0.486;2023-12-14T05:43:41;101898.69;;;4.87;100.00
71424;BME280;59240;51.370;-0.486;2023-12-14T05:48:38;101911.72;;;4.93;100.00
71424;BME280;59240;51.370;-0.486;2023-12-14T05:53:35;101900.47;;;4.89;100.00
71424;BME280;59240;51.370;-0.486;2023-12-14T05:58:36;101913.44;;;4.94;100.00
71424;BME280;59240;51.370;-0.486;2023-12-14T06:03:32;101917.75;;;4.93;100.00
71424;BME280;59240;51.370;-0.486;2023-12-14T06:08:29;101909.00;;;4.85;100.00
71424;BME280;59240;51.370;-0.486;2023-12-14T06:13:26;101919.31;;;4.85;100.00
71424;BME280;59240;51.370;-0.486;2023-12-14T06:18:24;101948.84;;;5.00;100.00
71424;BME280;59240;51.370;-0.486;2023-12-14T06:23:21;101936.78;;;4.99;100.00
71424;BME280;59240;51.370;-0.486;2023-12-14T06:28:18;101944.56;;;5.00;100.00
71424;BME280;59240;51.370;-0.486;2023-12-14T06:33:15;101945.34;;;4.94;100.00
71424;BME280;59240;51.370;-0.486;2023-12-14T06:38:12;101942.91;;;5.02;100.00
71424;BME280;59240;51.370;-0.486;2023-12-14T06:43:09;101945.50;;;5.02;100.00
71424;BME280;59240;51.370;-0.486;2023-12-14T06:48:06;101954.16;;;5.06;100.00
71424;BME280;59240;51.370;-0.486;2023-12-14T06:53:03;101937.47;;;4.88;100.00
71424;BME280;59240;51.370;-0.486;2023-12-14T06:58:00;101960.16;;;5.05;100.00
71424;BME280;59240;51.370;-0.486;2023-12-14T07:02:57;101967.06;;;5.06;100.00
71424;BME280;59240;51.370;-0.486;2023-12-14T07:07:54;101974.88;;;5.09;100.00
71424;BME280;59240;51.370;-0.486;2023-12-14T07:12:51;101974.81;;;5.06;100.00
71424;BME280;59240;51.370;-0.486;2023-12-14T07:17:48;101976.50;;;5.04;100.00
71424;BME280;59240;51.370;-0.486;2023-12-14T07:22:45;101967.75;;;4.97;100.00
71424;BME280;59240;51.370;-0.486;2023-12-14T07:27:42;101992.16;;;5.13;100.00
71424;BME280;59240;51.370;-0.486;2023-12-14T07:32:39;101960.91;;;5.01;100.00
71424;BME280;59240;51.370;-0.486;2023-12-14T07:37:36;101980.19;;;5.15;100.00
71424;BME280;59240;51.370;-0.486;2023-12-14T07:42:35;101995.88;;;5.27;100.00
71424;BME280;59240;51.370;-0.486;2023-12-14T07:47:32;101993.31;;;5.27;100.00
71424;BME280;59240;51.370;-0.486;2023-12-14T07:52:29;101990.69;;;5.24;100.00
71424;BME280;59240;51.370;-0.486;2023-12-14T07:57:25;101993.34;;;5.29;100.00
71424;BME280;59240;51.370;-0.486;2023-12-14T08:02:22;101939.41;;;5.00;100.00
71424;BME280;59240;51.370;-0.486;2023-12-14T08:07:20;101969.75;;;5.12;100.00
71424;BME280;59240;51.370;-0.486;2023-12-14T08:12:17;102001.13;;;5.30;100.00
71424;BME280;59240;51.370;-0.486;2023-12-14T08:17:14;101992.53;;;5.31;100.00
71424;BME280;59240;51.370;-0.486;2023-12-14T08:22:11;102013.22;;;5.33;100.00
71424;BME280;59240;51.370;-0.486;2023-12-14T08:27:09;102012.34;;;5.32;100.00
71424;BME280;59240;51.370;-0.486;2023-12-14T08:32:06;102019.41;;;5.41;100.00
71424;BME280;59240;51.370;-0.486;2023-12-14T08:37:03;102020.34;;;5.44;100.00
71424;BME280;59240;51.370;-0.486;2023-12-14T08:41:59;101998.59;;;5.33;100.00
71424;BME280;59240;51.370;-0.486;2023-12-14T08:46:57;101973.44;;;5.23;100.00
71424;BME280;59240;51.370;-0.486;2023-12-14T08:51:54;101991.06;;;5.44;100.00
71424;BME280;59240;51.370;-0.486;2023-12-14T08:56:50;102027.72;;;5.70;100.00
71424;BME280;59240;51.370;-0.486;2023-12-14T09:01:47;102030.47;;;5.79;100.00
71424;BME280;59240;51.370;-0.486;2023-12-14T09:06:44;102031.47;;;5.87;100.00
71424;BME280;59240;51.370;-0.486;2023-12-14T09:11:42;102008.97;;;5.83;100.00
71424;BME280;59240;51.370;-0.486;2023-12-14T09:16:38;102037.72;;;5.98;100.00
71424;BME280;59240;51.370;-0.486;2023-12-14T09:21:35;102060.31;;;6.09;100.00
71424;BME280;59240;51.370;-0.486;2023-12-14T09:26:41;102054.34;;;6.13;100.00
71424;BME280;59240;51.370;-0.486;2023-12-14T09:31:41;102071.75;;;6.23;100.00
71424;BME280;59240;51.370;-0.486;2023-12-14T09:36:39;102062.34;;;6.28;100.00
71424;BME280;59240;51.370;-0.486;2023-12-14T09:41:37;102060.66;;;6.30;100.00
71424;BME280;59240;51.370;-0.486;2023-12-14T09:46:37;102060.72;;;6.33;100.00
71424;BME280;59240;51.370;-0.486;2023-12-14T09:51:34;102061.66;;;6.38;100.00
71424;BME280;59240;51.370;-0.486;2023-12-14T09:56:31;102073.88;;;6.45;100.00
71424;BME280;59240;51.370;-0.486;2023-12-14T10:01:28;102060.09;;;6.49;100.00
71424;BME280;59240;51.370;-0.486;2023-12-14T10:06:24;102074.09;;;6.61;100.00
71424;BME280;59240;51.370;-0.486;2023-12-14T10:11:21;102071.59;;;6.67;100.00
71424;BME280;59240;51.370;-0.486;2023-12-14T10:16:29;102084.66;;;6.76;100.00
71424;BME280;59240;51.370;-0.486;2023-12-14T10:21:28;102084.66;;;6.76;100.00
71424;BME280;59240;51.370;-0.486;2023-12-14T10:26:25;102084.69;;;6.79;100.00
71424;BME280;59240;51.370;-0.486;2023-12-14T10:31:24;102082.97;;;6.78;100.00
71424;BME280;59240;51.370;-0.486;2023-12-14T10:36:25;102096.84;;;6.80;100.00
71424;BME280;59240;51.370;-0.486;2023-12-14T10:41:24;102091.78;;;6.89;100.00
71424;BME280;59240;51.370;-0.486;2023-12-14T10:46:20;102097.97;;;7.00;100.00
71424;BME280;59240;51.370;-0.486;2023-12-14T10:51:20;102090.31;;;7.09;100.00
71424;BME280;59240;51.370;-0.486;2023-12-14T10:56:18;102088.75;;;7.21;100.00
71424;BME280;59240;51.370;-0.486;2023-12-14T11:01:16;102092.25;;;7.26;100.00
71424;BME280;59240;51.370;-0.486;2023-12-14T11:06:29;102092.41;;;7.38;100.00
71424;BME280;59240;51.370;-0.486;2023-12-14T11:11:28;102083.78;;;7.39;100.00
71424;BME280;59240;51.370;-0.486;2023-12-14T11:16:26;102088.19;;;7.46;100.00
71424;BME280;59240;51.370;-0.486;2023-12-14T11:21:25;102090.84;;;7.52;100.00
71424;BME280;59240;51.370;-0.486;2023-12-14T11:26:24;102076.00;;;7.40;100.00
71424;BME280;59240;51.370;-0.486;2023-12-14T11:31:21;102073.53;;;7.50;100.00
71424;BME280;59240;51.370;-0.486;2023-12-14T11:36:19;102059.72;;;7.49;100.00
71424;BME280;59240;51.370;-0.486;2023-12-14T11:41:17;102061.25;;;7.33;100.00
71424;BME280;59240;51.370;-0.486;2023-12-14T11:46:14;102062.06;;;7.29;100.00
71424;BME280;59240;51.370;-0.486;2023-12-14T11:51:12;102029.34;;;7.39;100.00
71424;BME280;59240;51.370;-0.486;2023-12-14T11:56:09;102065.06;;;7.67;100.00
71424;BME280;59240;51.370;-0.486;2023-12-14T12:01:16;102068.66;;;7.79;100.00
71424;BME280;59240;51.370;-0.486;2023-12-14T12:06:21;102060.09;;;7.86;100.00
71424;BME280;59240;51.370;-0.486;2023-12-14T12:11:23;102063.56;;;7.88;100.00
71424;BME280;59240;51.370;-0.486;2023-12-14T12:16:21;102052.41;;;7.97;100.00
71424;BME280;59240;51.370;-0.486;2023-12-14T12:21:18;102051.63;;;8.08;100.00
71424;BME280;59240;51.370;-0.486;2023-12-14T12:26:15;102025.69;;;8.08;100.00
71424;BME280;59240;51.370;-0.486;2023-12-14T12:31:12;102020.59;;;8.17;100.00
71424;BME280;59240;51.370;-0.486;2023-12-14T12:36:09;102015.44;;;8.27;100.00
71424;BME280;59240;51.370;-0.486;2023-12-14T12:41:07;102024.34;;;8.58;100.00
71424;BME280;59240;51.370;-0.486;2023-12-14T12:46:04;102024.44;;;8.77;100.00
71424;BME280;59240;51.370;-0.486;2023-12-14T12:51:01;102000.22;;;8.79;100.00
71424;BME280;59240;51.370;-0.486;2023-12-14T12:55:57;102031.56;;;9.15;100.00
71424;BME280;59240;51.370;-0.486;2023-12-14T13:00:54;102036.81;;;9.30;100.00
71424;BME280;59240;51.370;-0.486;2023-12-14T13:05:52;102033.38;;;9.38;100.00
71424;BME280;59240;51.370;-0.486;2023-12-14T13:10:49;102029.06;;;9.44;100.00
71424;BME280;59240;51.370;-0.486;2023-12-14T13:15:51;101997.84;;;9.35;100.00
71424;BME280;59240;51.370;-0.486;2023-12-14T13:20:48;102027.34;;;9.60;100.00
71424;BME280;59240;51.370;-0.486;2023-12-14T13:25:45;102031.72;;;9.69;100.00
71424;BME280;59240;51.370;-0.486;2023-12-14T13:30:41;102029.97;;;9.72;100.00
71424;BME280;59240;51.370;-0.486;2023-12-14T13:35:38;102035.19;;;9.78;100.00
71424;BME280;59240;51.370;-0.486;2023-12-14T13:40:35;102023.94;;;9.75;100.00
71424;BME280;59240;51.370;-0.486;2023-12-14T13:45:32;102050.81;;;9.94;100.00
71424;BME280;59240;51.370;-0.486;2023-12-14T13:50:30;102063.84;;;9.98;100.00
71424;BME280;59240;51.370;-0.486;2023-12-14T13:55:27;102069.09;;;10.09;100.00
71424;BME280;59240;51.370;-0.486;2023-12-14T14:00:24;102065.59;;;10.13;100.00
71424;BME280;59240;51.370;-0.486;2023-12-14T14:05:21;102064.75;;;10.17;100.00
71424;BME280;59240;51.370;-0.486;2023-12-14T14:10:19;102075.16;;;10.17;100.00
71424;BME280;59240;51.370;-0.486;2023-12-14T14:15:17;102069.94;;;10.14;100.00
71424;BME280;59240;51.370;-0.486;2023-12-14T14:20:14;102089.06;;;10.28;100.00
71424;BME280;59240;51.370;-0.486;2023-12-14T14:25:11;102046.50;;;10.02;100.00
71424;BME280;59240;51.370;-0.486;2023-12-14T14:30:08;102118.59;;;10.41;100.00
71424;BME280;59240;51.370;-0.486;2023-12-14T14:35:05;102102.13;;;10.30;100.00
71424;BME280;59240;51.370;-0.486;2023-12-14T14:40:04;102139.44;;;10.43;100.00
71424;BME280;59240;51.370;-0.486;2023-12-14T14:45:01;102144.63;;;10.43;100.00
71424;BME280;59240;51.370;-0.486;2023-12-14T14:49:58;102137.72;;;10.38;100.00
71424;BME280;59240;51.370;-0.486;2023-12-14T14:55:00;102153.31;;;10.49;100.00
71424;BME280;59240;51.370;-0.486;2023-12-14T14:59:57;102133.38;;;10.39;100.00
71424;BME280;59240;51.370;-0.486;2023-12-14T15:04:54;102160.28;;;10.61;100.00
71424;BME280;59240;51.370;-0.486;2023-12-14T15:09:51;102170.72;;;10.58;100.00
71424;BME280;59240;51.370;-0.486;2023-12-14T15:14:48;102160.28;;;10.46;100.00
71424;BME280;59240;51.370;-0.486;2023-12-14T15:19:45;102192.44;;;10.66;100.00
71424;BME280;59240;51.370;-0.486;2023-12-14T15:24:44;102188.94;;;10.62;100.00
71424;BME280;59240;51.370;-0.486;2023-12-14T15:29:41;102205.44;;;10.63;100.00
71424;BME280;59240;51.370;-0.486;2023-12-14T15:34:38;102208.91;;;10.56;100.00
71424;BME280;59240;51.370;-0.486;2023-12-14T15:39:35;102222.84;;;10.64;100.00
71424;BME280;59240;51.370;-0.486;2023-12-14T15:44:32;102225.47;;;10.64;100.00
71424;BME280;59240;51.370;-0.486;2023-12-14T15:49:29;102228.03;;;10.61;100.00
71424;BME280;59240;51.370;-0.486;2023-12-14T15:54:26;102238.44;;;10.56;100.00
71424;BME280;59240;51.370;-0.486;2023-12-14T15:59:22;102223.66;;;10.41;100.00
71424;BME280;59240;51.370;-0.486;2023-12-14T16:04:19;102255.81;;;10.50;100.00
71424;BME280;59240;51.370;-0.486;2023-12-14T16:09:16;102262.75;;;10.49;100.00
71424;BME280;59240;51.370;-0.486;2023-12-14T16:14:14;102243.63;;;10.32;100.00
71424;BME280;59240;51.370;-0.486;2023-12-14T16:19:11;102264.50;;;10.36;100.00
71424;BME280;59240;51.370;-0.486;2023-12-14T16:24:08;102268.81;;;10.30;100.00
71424;BME280;59240;51.370;-0.486;2023-12-14T16:29:05;102268.72;;;10.18;100.00
71424;BME280;59240;51.370;-0.486;2023-12-14T16:34:02;102270.38;;;9.99;100.00
71424;BME280;59240;51.370;-0.486;2023-12-14T16:38:59;102257.25;;;9.68;100.00
71424;BME280;59240;51.370;-0.486;2023-12-14T16:43:56;102291.91;;;9.64;100.00
71424;BME280;59240;51.370;-0.486;2023-12-14T16:48:53;102299.63;;;9.49;100.00
71424;BME280;59240;51.370;-0.486;2023-12-14T16:53:52;102289.84;;;9.17;100.00
71424;BME280;59240;51.370;-0.486;2023-12-14T16:58:49;102321.00;;;9.13;100.00
71424;BME280;59240;51.370;-0.486;2023-12-14T17:03:47;102324.31;;;8.98;100.00
71424;BME280;59240;51.370;-0.486;2023-12-14T17:08:45;102341.50;;;8.84;100.00
71424;BME280;59240;51.370;-0.486;2023-12-14T17:13:41;102339.63;;;8.67;100.00
71424;BME280;59240;51.370;-0.486;2023-12-14T17:18:38;102339.47;;;8.55;100.00
71424;BME280;59240;51.370;-0.486;2023-12-14T17:23:35;102345.34;;;8.39;100.00
71424;BME280;59240;51.370;-0.486;2023-12-14T17:28:32;102324.16;;;8.08;100.00
71424;BME280;59240;51.370;-0.486;2023-12-14T17:33:29;102342.19;;;7.96;100.00
71424;BME280;59240;51.370;-0.486;2023-12-14T17:38:26;102347.97;;;7.80;100.00
71424;BME280;59240;51.370;-0.486;2023-12-14T17:43:22;102390.47;;;7.88;100.00
71424;BME280;59240;51.370;-0.486;2023-12-14T17:48:19;102387.63;;;7.71;100.00
71424;BME280;59240;51.370;-0.486;2023-12-14T17:53:16;102412.59;;;7.64;100.00
71424;BME280;59240;51.370;-0.486;2023-12-14T17:58:13;102421.13;;;7.57;100.00
71424;BME280;59240;51.370;-0.486;2023-12-14T18:03:10;102427.91;;;7.49;100.00
71424;BME280;59240;51.370;-0.486;2023-12-14T18:08:07;102431.19;;;7.39;100.00
71424;BME280;59240;51.370;-0.486;2023-12-14T18:13:04;102452.66;;;7.30;100.00
71424;BME280;59240;51.370;-0.486;2023-12-14T18:18:01;102444.63;;;7.17;100.00
71424;BME280;59240;51.370;-0.486;2023-12-14T18:22:59;102450.53;;;7.09;100.00
71424;BME280;59240;51.370;-0.486;2023-12-14T18:27:56;102434.63;;;6.93;100.00
71424;BME280;59240;51.370;-0.486;2023-12-14T18:32:58;102400.25;;;6.57;100.00
71424;BME280;59240;51.370;-0.486;2023-12-14T18:37:55;102456.75;;;6.75;100.00
71424;BME280;59240;51.370;-0.486;2023-12-14T18:42:54;102472.91;;;6.64;100.00
71424;BME280;59240;51.370;-0.486;2023-12-14T18:47:51;102482.22;;;6.55;100.00
71424;BME280;59240;51.370;-0.486;2023-12-14T18:52:48;102491.53;;;6.47;100.00
71424;BME280;59240;51.370;-0.486;2023-12-14T18:57:45;102472.00;;;6.24;100.00
71424;BME280;59240;51.370;-0.486;2023-12-14T19:02:43;102503.00;;;6.21;100.00
71424;BME280;59240;51.370;-0.486;2023-12-14T19:07:39;102534.56;;;6.42;100.00
71424;BME280;59240;51.370;-0.486;2023-12-14T19:12:37;102544.38;;;6.55;100.00
71424;BME280;59240;51.370;-0.486;2023-12-14T19:17:34;102516.91;;;6.62;100.00
71424;BME280;59240;51.370;-0.486;2023-12-14T19:22:31;102536.28;;;6.79;100.00
71424;BME280;59240;51.370;-0.486;2023-12-14T19:27:28;102539.06;;;6.89;100.00
71424;BME280;59240;51.370;-0.486;2023-12-14T19:32:24;102528.91;;;6.99;100.00
71424;BME280;59240;51.370;-0.486;2023-12-14T19:37:24;102537.91;;;7.17;100.00
71424;BME280;59240;51.370;-0.486;2023-12-14T19:42:20;102538.03;;;7.23;100.00
71424;BME280;59240;51.370;-0.486;2023-12-14T19:47:17;102513.75;;;7.18;100.00
71424;BME280;59240;51.370;-0.486;2023-12-14T19:52:14;102527.97;;;7.38;100.00
71424;BME280;59240;51.370;-0.486;2023-12-14T19:57:11;102543.63;;;7.44;100.00
71424;BME280;59240;51.370;-0.486;2023-12-14T20:02:08;102551.44;;;7.46;100.00
71424;BME280;59240;51.370;-0.486;2023-12-14T20:07:05;102563.69;;;7.53;100.00
71424;BME280;59240;51.370;-0.486;2023-12-14T20:12:03;102541.81;;;7.40;100.00
71424;BME280;59240;51.370;-0.486;2023-12-14T20:17:00;102554.19;;;7.53;100.00
71424;BME280;59240;51.370;-0.486;2023-12-14T20:21:57;102593.34;;;7.67;100.00
71424;BME280;59240;51.370;-0.486;2023-12-14T20:26:57;102592.56;;;7.70;100.00
71424;BME280;59240;51.370;-0.486;2023-12-14T20:31:54;102600.38;;;7.73;100.00
71424;BME280;59240;51.370;-0.486;2023-12-14T20:36:51;102613.41;;;7.76;100.00
71424;BME280;59240;51.370;-0.486;2023-12-14T20:41:48;102587.28;;;7.66;100.00
71424;BME280;59240;51.370;-0.486;2023-12-14T20:46:45;102626.59;;;7.88;100.00
71424;BME280;59240;51.370;-0.486;2023-12-14T20:51:42;102625.72;;;7.86;100.00
71424;BME280;59240;51.370;-0.486;2023-12-14T20:56:41;102621.28;;;7.80;100.00
71424;BME280;59240;51.370;-0.486;2023-12-14T21:01:38;102650.91;;;7.91;100.00
71424;BME280;59240;51.370;-0.486;2023-12-14T21:06:34;102652.59;;;7.89;100.00
71424;BME280;59240;51.370;-0.486;2023-12-14T21:11:31;102648.34;;;7.93;100.00
71424;BME280;59240;51.370;-0.486;2023-12-14T21:16:28;102669.97;;;7.95;100.00
71424;BME280;59240;51.370;-0.486;2023-12-14T21:21:25;102669.16;;;7.96;100.00
71424;BME280;59240;51.370;-0.486;2023-12-14T21:26:22;102683.03;;;7.98;100.00
71424;BME280;59240;51.370;-0.486;2023-12-14T21:31:19;102683.66;;;7.85;100.00
71424;BME280;59240;51.370;-0.486;2023-12-14T21:36:16;102709.13;;;8.04;100.00
71424;BME280;59240;51.370;-0.486;2023-12-14T21:41:12;102726.44;;;8.05;100.00
71424;BME280;59240;51.370;-0.486;2023-12-14T21:46:09;102717.84;;;8.09;100.00
71424;BME280;59240;51.370;-0.486;2023-12-14T21:51:06;102682.94;;;7.93;100.00
71424;BME280;59240;51.370;-0.486;2023-12-14T21:56:03;102709.31;;;8.16;100.00
71424;BME280;59240;51.370;-0.486;2023-12-14T22:01:00;102718.81;;;8.14;100.00
71424;BME280;59240;51.370;-0.486;2023-12-14T22:05:57;102727.59;;;8.21;100.00
71424;BME280;59240;51.370;-0.486;2023-12-14T22:10:55;102724.97;;;8.19;100.00
71424;BME280;59240;51.370;-0.486;2023-12-14T22:15:52;102735.47;;;8.26;100.00
71424;BME280;59240;51.370;-0.486;2023-12-14T22:20:50;102732.00;;;8.25;100.00
71424;BME280;59240;51.370;-0.486;2023-12-14T22:25:46;102745.03;;;8.28;100.00
71424;BME280;59240;51.370;-0.486;2023-12-14T22:30:43;102744.13;;;8.25;100.00
71424;BME280;59240;51.370;-0.486;2023-12-14T22:35:40;102764.94;;;8.28;100.00
71424;BME280;59240;51.370;-0.486;2023-12-14T22:40:37;102736.94;;;8.11;100.00
71424;BME280;59240;51.370;-0.486;2023-12-14T22:45:34;102770.09;;;8.25;100.00
71424;BME280;59240;51.370;-0.486;2023-12-14T22:50:31;102743.78;;;8.09;100.00
71424;BME280;59240;51.370;-0.486;2023-12-14T22:55:28;102788.38;;;8.31;100.00
71424;BME280;59240;51.370;-0.486;2023-12-14T23:00:25;102795.28;;;8.30;100.00
71424;BME280;59240;51.370;-0.486;2023-12-14T23:05:28;102796.13;;;8.29;100.00
71424;BME280;59240;51.370;-0.486;2023-12-14T23:10:25;102806.56;;;8.31;100.00
71424;BME280;59240;51.370;-0.486;2023-12-14T23:15:22;102792.34;;;8.13;100.00
71424;BME280;59240;51.370;-0.486;2023-12-14T23:20:19;102805.50;;;8.22;100.00
71424;BME280;59240;51.370;-0.486;2023-12-14T23:25:16;102803.72;;;8.18;100.00
71424;BME280;59240;51.370;-0.486;2023-12-14T23:30:16;102800.84;;;8.06;100.00
71424;BME280;59240;51.370;-0.486;2023-12-14T23:35:13;102815.41;;;7.98;100.00
71424;BME280;59240;51.370;-0.486;2023-12-14T23:40:10;102827.41;;;7.94;100.00
71424;BME280;59240;51.370;-0.486;2023-12-14T23:45:07;102832.47;;;7.88;100.00
71424;BME280;59240;51.370;-0.486;2023-12-14T23:50:05;102831.34;;;7.76;100.00
71424;BME280;59240;51.370;-0.486;2023-12-14T23:55:02;102845.91;;;7.69;100.00
